Marquette, WI (53947)

7:46 AM CDT on August 28, 2015 (GMT -0500)
Marquette County | | Change Station
CLOSE
Current Station
Personal Weather Station
Location: Montello, WI
Elevation: 797 ft
Nearby Weather Stations

Elev 797 ft 43.79 °N, 89.34 °W | Updated 12 minutes ago

Partly Cloudy
Partly Cloudy
59.0 °F
Feels Like 59.0 °F
N
0.0
Wind Variable Wind from SSW
Gusts 0.0 mph

Today
High -- | Low -- °F
--% Chance of Precip.
Yesterday
High -- | Low -- °F
Precip. -- in
6:15 AM 7:39 PM
Waxing Gibbous, 98% visible
Pressure 30.10 in
Visibility 10.0 miles
Clouds Clear
Dew Point 58 °F
Humidity 97%
Rainfall Not available.
Snow Depth Not available.
UV 0 out of 12
Pollen 3.70 out of 12
Air Quality Not available.
Flu Activity Not available.
METAR KY50 281156Z AUTO 00000KT 10SM CLR 13/13 A3011 RMK AO2 TSNO 51006 T01270127 10138 20116 SLP193
Pressure 30.10 in
Visibility 10.0 miles
Clouds Clear
Dew Point 58 °F
Humidity 97%
Rainfall Not available.
Snow Depth Not available.
UV 0 out of 12
Pollen 3.70 out of 12
Air Quality Not available.
Flu Activity Not available.
METAR KY50 281156Z AUTO 00000KT 10SM CLR 13/13 A3011 RMK AO2 TSNO 51006 T01270127 10138 20116 SLP193

10-Day Weather Forecast

×

Almanac

Astronomy

Aug. 28, 2015 Rise Set
Actual Time
Civil Twilight
Nautical Twilight
Astronomical Twilight
Moon
Length of Visible Light
Length of Day
Tomorrow will be .
, % of the Moon is Illuminated

Today's Extremes

State Highs State Lows

Community

WunderPhotos

Upload Photos

1,850,373 photos uploaded!

WunderBlogs® & News

Nearby

Air Quality

  Air Quality AQ Index Pollutant
Not available.

Snow Depth

Station Depth Elevation

Earthquake Activity

City Distance Mag. Time & Date
Minimum magnitude displayed is 2.5.

Coastal Water Temperatures

Place Temperature

Stations

Nearby Weather Stations

Station Location Temp. Windchill Dew Point Humidity Wind Precip. Elev Updated Type